KBDUKJAC

Guest
Details From KBDU - Boulder Muni
To KJAC - Jackson Hole
Flight Number -
Tags Generated
Created
Modified
Stats Distance 326 nm / 604 km
Max Altitude 0 ft / 0 m
Waypoints 3
Social Downloads 0
Likes 0
Share VATSIM

Download

Looking for another format? Having issues loading an existing format? Contact us
Advertisement - Login to hide

Notes

Generated

Route

KBDU R2805 KJAC

ID Type Via Altitude Latitude Longitude Leg Dist Tot Dist Heading (true) Name
O KBDU APT - 0 ft / 0 m 40.03833˚ -105.23473˚ - 0 nm - BOULDER MUNI
R2805 FIX - 0 ft / 0 m 43.59919˚ -110.74172˚ 326 nm 326 nm 313° / 309° -
O KJAC APT - 0 ft / 0 m 43.59842˚ -110.74209˚ 0 nm 326 nm 199° / 199° -

Altitude Profile

Advertisement - Login to hide

Weather


0- 5 10 15 20 25 30 35+ Temperature / ° C

Clouds and Precipitation
Forecast for 2017-12-11 18:00 UTC. Updated 2 hours ago

Ground ~20,000 ft ~40,000 ft Winds

KBDU

Details ICAO KBDU (WBU)
Name BOULDER MUNI
Region United States
Timezone America/Denver (UTC-7.0)
Stats Elevation 5,288 ft / 1,612 m (AMSL)
Location 40.038749° -105.227366°
Runways 2
Magnetic Variation 8.368° E

METAR

KBDU 111912Z AUTO 05004KT 10SM CLR 13/M13 A3032 RMK AO2

Decode

TAF

Not found

Departure Runways

ID Width Length Bearing (true) Bearing (mag) Surface Threshold Offset Overrun Length
08L 25 ft / 8 m 4,121 ft / 1,256 m 92.83° 84.46° Dirt 200 ft / 61 m 0 ft / 0 m
08R 75 ft / 23 m 4,121 ft / 1,256 m 92.81° 84.44° Asphalt 200 ft / 61 m 0 ft / 0 m
26L 75 ft / 23 m 4,121 ft / 1,256 m 272.82° 264.45° Asphalt 200 ft / 61 m 0 ft / 0 m
26R 25 ft / 8 m 4,121 ft / 1,256 m 272.84° 264.47° Dirt 0 ft / 0 m 0 ft / 0 m

KJAC

Details ICAO KJAC (JAC)
Name Jackson Hole
Region United States
Timezone America/Denver (UTC-7.0)
Stats Elevation 6,451 ft / 1,966 m (AMSL)
Location 43.607352° -110.737742°
Runways 1
Magnetic Variation 11.398° E

METAR

KJAC 111756Z 00000KT 10SM CLR M03/M09 A3063 RMK AO2 SLP451 6//// T10331094 11033 21133 50007

Decode

TAF

TAF KJAC 111720Z 1118/1218 VRB05KT P6SM VCFG FEW003 FM111900 VRB05KT P6SM SCT250 FM121100 VRB05KT P6SM VCFG FEW003 FM121300 VRB05KT 2SM BR OVC002 AMD LTD TO CLD VIS AND WIND

Decode

Destination Runways

ID Width Length Bearing (true) Bearing (mag) Surface Threshold Offset Overrun Length
01 151 ft / 46 m 6,285 ft / 1,916 m 19.50° 8.10° Asphalt 0 ft / 0 m 308 ft / 94 m
19 151 ft / 46 m 6,285 ft / 1,916 m 199.50° 188.10° Asphalt 0 ft / 0 m 305 ft / 93 m

Approach Navaids

Runway Type Ident Frequency Range Bearing (true) Bearing (mag) Slope Elevation
19 Localiser IJAC 109.10 MHz 18 nm / 33 km 199.36° 187.96° - 6,408 ft / 1,953 m (AMSL)
19 Glidescope IJAC 109.10 MHz 10 nm / 19 km 199.36° 187.96° 3.00° 6,441 ft / 1,963 m (AMSL)
19 DME IJAC 109.10 MHz 18 nm / 33 km - - - 6,415 ft / 1,955 m (AMSL)

Popular Alternatives